x

West Erie - 16 Nm Nw Of Lorain, Oh (45005) Wave Buoy

5:50pm - Fri 24th Oct 2014 All times are CDT. -5 hours from GMT.

  • Sig Wave height 0.3ft
  • Average Period 3s
  • Wind
    4mph, 7mph gusts
  • Sea Temp 57°f
  • Air Temp 57°f
  • Sea Pressure 1015.9mb
  • West Erie - 16 Nm Nw Of Lorain, Oh
  • West Erie - 16 Nm Nw Of Lorain, Oh

More Historic Weather Station data

Upgrade to MSW Pro to gain access to the past 30 days of data for over 8000 Wavebouys and Weather Stations around the globe.

Join Pro

Comparision Forecast

View Surf forecast
   
Fri 10/24 5:50pm 0.3ft  -  3s 4 7 mph 1015.9mb 57f 57f
4:50pm 0.3ft  -  3s 4
mph
1015.8mb 57f 56f
3:50pm 0.3ft  -  3s 2
mph
1016mb 57f 56f
2:50pm 0.3ft  -  2s 2 4 mph 1016.4mb 57f 56f
1:50pm 0.7ft  -  3s 9
mph
1017mb 57f 55f
12:50pm 0.7ft  -  3s 11
mph
1017.5mb 57f 54f
11:50am 1ft 3s 3s 13
mph
1018.7mb 57f 53f
10:50am 1ft 3s 3s 11 13 mph 1019mb 56f 52f
9:50am 1ft 3s 3s 11 13 mph 1019.3mb 56f 51f
8:50am 1ft 3s 3s 13 16 mph 1019.2mb 56f 51f
7:50am 1ft 3s 3s 11 13 mph 1019.2mb 56f 51f
6:50am  -   -   -  11
mph
1019.1mb 56f 51f
5:50am 1ft 3s 3s 13
mph
1019.4mb 56f 51f
4:50am 0.7ft  -  3s 11
mph
1019.1mb 56f 52f
3:50am 1ft 2s 3s 11
mph
1019mb 56f 52f
2:50am 0.7ft  -  3s 13 16 mph 1019mb 56f 53f
1:50am  -   -   -  7 9 mph 1019mb 56f 54f
12:50am 1ft 3s 3s 11 13 mph 1019.4mb 56f 54f
Thu 10/23 11:50pm 0.7ft  -  3s 11
mph
1019.3mb 56f 53f
10:50pm 0.7ft  -  3s 9 11 mph 1019.4mb 56f 53f
9:50pm 0.7ft  -  4s 11
mph
1019.9mb 56f 54f
8:50pm 0.7ft  -  3s 7 9 mph 1019.8mb 56f 54f
7:50pm 0.7ft  -  3s 4 7 mph 1019.8mb 56f 54f
6:50pm 1ft 4s 3s 9 11 mph 1020.1mb 56f 54f
5:50pm 1ft 4s 3s 11
mph
1020.5mb 56f 53f
4:50pm 1ft 5s 3s 9 11 mph 1020.6mb 56f 53f
3:50pm 1.3ft 5s 3s 11 13 mph 1020.8mb 57f 52f
2:50pm 1.3ft 5s 3s 9 11 mph 1021.3mb 57f 52f
1:50pm 1.3ft 4s 3s 11 13 mph 1021.7mb 57f 51f
12:50pm 1.3ft 4s 3s 9 11 mph 1022.8mb 56f 51f
11:50am 1.6ft 4s 4s 7 9 mph 1023.5mb 56f 50f
10:50am 1.6ft 3s 3s 7 9 mph 1024mb 56f 50f
9:50am 2ft 4s 3s 11
mph
1024.2mb 56f 49f
8:50am 2ft 4s 4s 11 13 mph 1023.7mb 56f 49f
7:50am 2.5ft 4s 4s 13 16 mph 1023.4mb 56f 49f
6:50am 2.5ft 4s 4s 16 18 mph 1023.3mb 56f 48f
5:50am 2.5ft 4s 4s 16 18 mph 1023.5mb 56f 49f
4:50am 2.5ft 4s 4s 16 18 mph 1023.5mb 56f 48f
3:50am 2.5ft 4s 4s 16 18 mph 1023.4mb 56f 49f
2:50am 2.5ft 5s 4s 16 18 mph 1023.5mb 56f 49f
1:50am 3ft 5s 4s 16 18 mph 1023.8mb 56f 50f
12:50am 3ft 4s 4s 16 18 mph 1024.1mb 56f 50f
Wed 10/22 11:50pm 3ft 4s 4s 16 20 mph 1024mb 56f 50f
10:50pm 3.5ft 5s 4s 18 22 mph 1024.3mb 56f 50f
9:50pm 3.5ft 4s 4s 22 25 mph 1024.6mb 56f 50f
8:50pm 3ft 5s 4s 22 25 mph 1024.4mb 56f 51f
7:50pm 2.5ft 3s 4s 18 22 mph 1024.7mb 56f 52f
6:50pm 2.5ft 3s 4s 16 18 mph 1025mb 56f 53f
5:50pm 2.5ft 6s 4s 16 18 mph 1024.8mb 56f 54f
4:50pm 2.5ft 6s 4s 13 16 mph 1024.8mb 56f 54f
3:50pm 2.5ft 4s 4s 13 16 mph 1024.8mb 56f 54f
2:50pm 2.5ft 4s 4s 13 18 mph 1024.9mb 56f 53f
1:50pm 3ft 5s 4s 16 20 mph 1025mb 56f 52f
12:50pm 3ft 5s 4s 16 18 mph 1025.4mb 56f 51f
11:50am 3ft 6s 4s 16 20 mph 1026mb 56f 49f
10:50am 3ft 6s 4s 18 22 mph 1026.1mb 56f 48f
9:50am 3.5ft 6s 4s 18 20 mph 1026mb 56f 47f
8:50am 3.5ft 5s 4s 18 20 mph 1025.8mb 56f 47f
7:50am 3.5ft 6s 4s 18 22 mph 1025mb 56f 47f
6:50am 3.5ft 6s 4s 16 20 mph 1024.5mb 56f 47f
5:50am 3.5ft 6s 4s 16 20 mph 1023.8mb 56f 47f
4:50am 3.5ft 6s 4s 18 22 mph 1023mb 56f 48f
3:50am 3.5ft 6s 4s 16 20 mph 1022.2mb 56f 48f
2:50am 3.5ft 5s 4s 18 22 mph 1021.7mb 56f 48f
1:50am 3.5ft 6s 4s 18 20 mph 1021.5mb 56f 48f
12:50am 4ft 6s 4s 20 25 mph 1021.2mb 56f 49f
Tue 10/21 11:50pm 4ft 5s 4s 20 25 mph 1021.2mb 56f 49f
10:50pm 5ft 5s 4s 22 25 mph 1021mb 57f 49f
9:50pm 5.5ft 6s 5s 22 29 mph 1020.8mb 57f 49f
8:50pm 5ft 5s 5s 27 31 mph 1020.1mb 57f 49f
7:50pm 5ft 5s 4s 27 34 mph 1019.3mb 57f 48f
6:50pm 5.5ft 5s 4s 29 34 mph 1018.7mb 57f 48f
5:50pm 5.5ft 5s 4s 29 36 mph 1018.2mb 57f 47f
4:50pm 4.5ft 4s 4s 29 36 mph 1017.7mb 57f 48f
3:50pm 4.5ft 5s 4s 27 31 mph 1017.2mb 57f 48f
2:50pm  -   -   -  25 29 mph 1016.8mb 57f 48f
1:50pm  -   -   -  27 31 mph 1016.1mb 57f 48f
12:50pm  -   -   -  25 29 mph 1015.8mb 57f 49f
11:50am 4.5ft 5s 4s 25 29 mph 1015.4mb 58f 49f
10:50am 4ft 4s 4s 27 29 mph 1014.9mb 58f 50f
9:50am 3.5ft 4s 4s 25 29 mph 1014.4mb 58f 50f
8:50am 2.5ft 4s 3s 22 27 mph 1013.8mb 58f 51f
7:50am 2.5ft 4s 4s 18 22 mph 1013.6mb 58f 50f
6:50am 2.5ft 4s 3s 18 22 mph 1012.7mb 58f 51f
5:50am 2.5ft 4s 3s 18 22 mph 1012.3mb 58f 51f
4:50am 2.5ft 4s 3s 18 22 mph 1011.7mb 58f 51f
3:50am 2.5ft 3s 3s 18 20 mph 1011.3mb 58f 52f
2:50am 2ft 3s 3s 20 22 mph 1011mb 58f 52f
1:50am 1.6ft 4s 3s 20 22 mph 1010.7mb 58f 53f
12:50am 2ft 3s 3s 16 20 mph 1010.5mb 58f 54f